METAR Data
IDs: Format: Raw Decoded Include TAF

Data at: 1135 UTC 24 May 2022

KAUS 241133Z 09005KT 10SM SCT014 BKN022 22/20 A2975 RMK AO2 T02220200